ZPTAI SUCM-SAZO
Flight info
| Callsign | ZPTAI |
|---|---|
| Flight time | 3h 18m |
| Altitude | FL095 |
| Route | 3411S05815W 3455S05758W 3534S05801W 3619S05741W 3652S05753W 3727S05744W 3751S05815W 3809S05847W |
| Aircraft | C152/L-S/N |
Departure
| Time | 2026-04-11 22:05 |
|---|---|
| Airport | Zagarzazú International Airport (SUCM) |
Arrival
| Time | 2026-04-12 01:24 |
|---|---|
| Airport | Necochea Airport (SAZO) |
| Time | Latitude | Longitude | Altitude | Speed | Heading |
|---|---|---|---|---|---|
| 2026-04-11 22:01 | -33.96190 | -58.32693 | 40 ft | 0 kts | 163° |
| 2026-04-11 22:04 | -33.96249 | -58.32667 | 40 ft | 28 kts | 160° |
| 2026-04-11 22:04 | -33.96556 | -58.32553 | 40 ft | 63 kts | 160° |
| 2026-04-11 22:04 | -33.97005 | -58.32401 | 144 ft | 65 kts | 161° |
| 2026-04-11 22:04 | -33.97432 | -58.32222 | 251 ft | 67 kts | 151° |
| 2026-04-11 22:05 | -33.97877 | -58.32027 | 341 ft | 71 kts | 176° |
| 2026-04-11 22:05 | -33.98393 | -58.31973 | 440 ft | 79 kts | 155° |
| 2026-04-11 22:05 | -33.98929 | -58.31774 | 556 ft | 83 kts | 162° |
| 2026-04-11 22:05 | -33.99504 | -58.31584 | 647 ft | 88 kts | 162° |
| 2026-04-11 22:06 | -34.00109 | -58.31386 | 716 ft | 92 kts | 162° |
| 2026-04-11 22:06 | -34.00735 | -58.31180 | 771 ft | 95 kts | 162° |
| 2026-04-11 22:06 | -34.01362 | -58.30973 | 802 ft | 95 kts | 162° |
| 2026-04-11 22:06 | -34.01997 | -58.30764 | 832 ft | 93 kts | 162° |
| 2026-04-11 22:07 | -34.02611 | -58.30560 | 857 ft | 91 kts | 163° |
| 2026-04-11 22:07 | -34.03215 | -58.30359 | 880 ft | 90 kts | 164° |
| 2026-04-11 22:07 | -34.03814 | -58.30160 | 902 ft | 89 kts | 165° |
| 2026-04-11 22:07 | -34.04413 | -58.29960 | 923 ft | 89 kts | 165° |
| 2026-04-11 22:08 | -34.05009 | -58.29762 | 946 ft | 89 kts | 166° |
| 2026-04-11 22:08 | -34.05608 | -58.29562 | 968 ft | 89 kts | 166° |
| 2026-04-11 22:08 | -34.06206 | -58.29363 | 992 ft | 90 kts | 167° |
| 2026-04-11 22:08 | -34.06810 | -58.29162 | 1015 ft | 91 kts | 167° |
| 2026-04-11 22:09 | -34.07418 | -58.28960 | 1039 ft | 91 kts | 167° |
| 2026-04-11 22:09 | -34.08033 | -58.28755 | 1064 ft | 92 kts | 167° |
| 2026-04-11 22:09 | -34.08655 | -58.28549 | 1089 ft | 93 kts | 167° |
| 2026-04-11 22:09 | -34.09282 | -58.28341 | 1114 ft | 94 kts | 167° |
| 2026-04-11 22:10 | -34.09917 | -58.28130 | 1139 ft | 95 kts | 167° |
| 2026-04-11 22:10 | -34.10561 | -58.27916 | 1159 ft | 98 kts | 164° |
| 2026-04-11 22:10 | -34.11217 | -58.27698 | 1190 ft | 98 kts | 163° |
| 2026-04-11 22:10 | -34.11872 | -58.27479 | 1219 ft | 98 kts | 162° |
| 2026-04-11 22:11 | -34.12530 | -58.27259 | 1248 ft | 98 kts | 162° |
| 2026-04-11 22:11 | -34.13189 | -58.27040 | 1275 ft | 98 kts | 161° |
| 2026-04-11 22:11 | -34.13844 | -58.26821 | 1302 ft | 98 kts | 161° |
| 2026-04-11 22:11 | -34.14499 | -58.26603 | 1327 ft | 98 kts | 161° |
| 2026-04-11 22:12 | -34.15151 | -58.26386 | 1353 ft | 97 kts | 160° |
| 2026-04-11 22:12 | -34.15801 | -58.26170 | 1378 ft | 97 kts | 160° |
| 2026-04-11 22:12 | -34.16446 | -58.25955 | 1404 ft | 96 kts | 159° |
| 2026-04-11 22:12 | -34.17088 | -58.25741 | 1430 ft | 96 kts | 159° |
| 2026-04-11 22:13 | -34.17724 | -58.25522 | 1454 ft | 95 kts | 157° |
| 2026-04-11 22:13 | -34.18346 | -58.25285 | 1494 ft | 93 kts | 156° |
| 2026-04-11 22:13 | -34.18961 | -58.25048 | 1520 ft | 93 kts | 156° |
| 2026-04-11 22:13 | -34.19572 | -58.24811 | 1548 ft | 92 kts | 156° |
| 2026-04-11 22:14 | -34.20180 | -58.24575 | 1575 ft | 92 kts | 155° |
| 2026-04-11 22:14 | -34.20786 | -58.24340 | 1600 ft | 91 kts | 155° |
| 2026-04-11 22:14 | -34.21388 | -58.24106 | 1625 ft | 91 kts | 155° |
| 2026-04-11 22:14 | -34.21989 | -58.23873 | 1650 ft | 91 kts | 155° |
| 2026-04-11 22:15 | -34.22586 | -58.23641 | 1676 ft | 90 kts | 155° |
| 2026-04-11 22:15 | -34.23180 | -58.23410 | 1701 ft | 90 kts | 155° |
| 2026-04-11 22:15 | -34.23770 | -58.23181 | 1725 ft | 89 kts | 155° |
| 2026-04-11 22:15 | -34.24359 | -58.22952 | 1750 ft | 89 kts | 155° |
| 2026-04-11 22:16 | -34.24944 | -58.22724 | 1775 ft | 88 kts | 155° |
| 2026-04-11 22:16 | -34.25527 | -58.22497 | 1799 ft | 88 kts | 155° |
| 2026-04-11 22:16 | -34.26108 | -58.22271 | 1825 ft | 88 kts | 155° |
| 2026-04-11 22:16 | -34.26686 | -58.22046 | 1851 ft | 87 kts | 155° |
| 2026-04-11 22:17 | -34.27263 | -58.21822 | 1875 ft | 87 kts | 155° |
| 2026-04-11 22:17 | -34.27836 | -58.21598 | 1900 ft | 86 kts | 156° |
| 2026-04-11 22:17 | -34.28391 | -58.21382 | 1941 ft | 83 kts | 158° |
| 2026-04-11 22:17 | -34.28935 | -58.21171 | 1959 ft | 82 kts | 159° |
| 2026-04-11 22:18 | -34.29476 | -58.20961 | 1982 ft | 81 kts | 159° |
| 2026-04-11 22:18 | -34.30011 | -58.20752 | 2006 ft | 81 kts | 160° |
| 2026-04-11 22:18 | -34.30545 | -58.20544 | 2030 ft | 80 kts | 160° |
| 2026-04-11 22:18 | -34.31075 | -58.20337 | 2054 ft | 80 kts | 161° |
| 2026-04-11 22:19 | -34.31605 | -58.20131 | 2079 ft | 80 kts | 161° |
| 2026-04-11 22:19 | -34.32133 | -58.19925 | 2104 ft | 80 kts | 162° |
| 2026-04-11 22:19 | -34.32661 | -58.19720 | 2129 ft | 80 kts | 162° |
| 2026-04-11 22:19 | -34.33190 | -58.19514 | 2154 ft | 80 kts | 163° |
| 2026-04-11 22:20 | -34.33718 | -58.19308 | 2177 ft | 80 kts | 163° |
| 2026-04-11 22:20 | -34.34245 | -58.19102 | 2202 ft | 80 kts | 163° |
| 2026-04-11 22:20 | -34.34775 | -58.18895 | 2226 ft | 80 kts | 164° |
| 2026-04-11 22:20 | -34.35303 | -58.18689 | 2250 ft | 80 kts | 165° |
| 2026-04-11 22:21 | -34.35834 | -58.18482 | 2274 ft | 80 kts | 165° |
| 2026-04-11 22:21 | -34.36365 | -58.18275 | 2298 ft | 81 kts | 165° |
| 2026-04-11 22:21 | -34.36897 | -58.18068 | 2326 ft | 80 kts | 165° |
| 2026-04-11 22:21 | -34.37428 | -58.17861 | 2350 ft | 80 kts | 165° |
| 2026-04-11 22:22 | -34.37959 | -58.17654 | 2375 ft | 81 kts | 166° |
| 2026-04-11 22:22 | -34.38492 | -58.17446 | 2399 ft | 81 kts | 166° |
| 2026-04-11 22:22 | -34.39026 | -58.17237 | 2424 ft | 81 kts | 166° |
| 2026-04-11 22:22 | -34.39563 | -58.17028 | 2450 ft | 81 kts | 167° |
| 2026-04-11 22:23 | -34.40101 | -58.16817 | 2476 ft | 82 kts | 167° |
| 2026-04-11 22:23 | -34.40641 | -58.16607 | 2502 ft | 82 kts | 167° |
| 2026-04-11 22:23 | -34.41186 | -58.16394 | 2527 ft | 83 kts | 167° |
| 2026-04-11 22:23 | -34.41732 | -58.16180 | 2552 ft | 83 kts | 167° |
| 2026-04-11 22:24 | -34.42280 | -58.15966 | 2577 ft | 83 kts | 168° |
| 2026-04-11 22:24 | -34.42833 | -58.15750 | 2601 ft | 84 kts | 168° |
| 2026-04-11 22:24 | -34.43403 | -58.15527 | 2602 ft | 89 kts | 168° |
| 2026-04-11 22:24 | -34.43997 | -58.15296 | 2617 ft | 94 kts | 164° |
| 2026-04-11 22:25 | -34.44624 | -58.15055 | 2658 ft | 93 kts | 157° |
| 2026-04-11 22:25 | -34.45237 | -58.14812 | 2692 ft | 94 kts | 156° |
| 2026-04-11 22:25 | -34.45856 | -58.14568 | 2722 ft | 94 kts | 157° |
| 2026-04-11 22:25 | -34.46476 | -58.14325 | 2750 ft | 94 kts | 157° |
| 2026-04-11 22:26 | -34.47098 | -58.14081 | 2776 ft | 94 kts | 157° |
| 2026-04-11 22:26 | -34.47720 | -58.13838 | 2802 ft | 94 kts | 157° |
| 2026-04-11 22:26 | -34.48344 | -58.13594 | 2828 ft | 94 kts | 157° |
| 2026-04-11 22:26 | -34.48967 | -58.13350 | 2853 ft | 94 kts | 157° |
| 2026-04-11 22:27 | -34.49590 | -58.13106 | 2877 ft | 94 kts | 157° |
| 2026-04-11 22:27 | -34.50213 | -58.12862 | 2902 ft | 94 kts | 157° |
| 2026-04-11 22:27 | -34.50836 | -58.12618 | 2926 ft | 94 kts | 157° |
| 2026-04-11 22:27 | -34.51459 | -58.12375 | 2951 ft | 94 kts | 156° |
| 2026-04-11 22:28 | -34.52081 | -58.12131 | 2975 ft | 94 kts | 156° |
| 2026-04-11 22:28 | -34.52701 | -58.11888 | 3000 ft | 94 kts | 156° |
| 2026-04-11 22:28 | -34.53322 | -58.11645 | 3026 ft | 94 kts | 156° |
| 2026-04-11 22:28 | -34.53942 | -58.11402 | 3050 ft | 94 kts | 156° |
| 2026-04-11 22:29 | -34.54561 | -58.11159 | 3074 ft | 94 kts | 156° |
| 2026-04-11 22:29 | -34.55181 | -58.10916 | 3101 ft | 94 kts | 156° |
| 2026-04-11 22:29 | -34.55799 | -58.10674 | 3126 ft | 94 kts | 156° |
| 2026-04-11 22:29 | -34.56419 | -58.10431 | 3152 ft | 94 kts | 156° |
| 2026-04-11 22:30 | -34.57033 | -58.10190 | 3179 ft | 94 kts | 156° |
| 2026-04-11 22:30 | -34.57659 | -58.09945 | 3205 ft | 94 kts | 156° |
| 2026-04-11 22:30 | -34.58281 | -58.09701 | 3231 ft | 94 kts | 156° |
| 2026-04-11 22:30 | -34.58901 | -58.09458 | 3256 ft | 94 kts | 156° |
| 2026-04-11 22:31 | -34.59523 | -58.09214 | 3281 ft | 94 kts | 156° |
| 2026-04-11 22:31 | -34.60145 | -58.08970 | 3306 ft | 94 kts | 156° |
| 2026-04-11 22:31 | -34.60766 | -58.08726 | 3330 ft | 94 kts | 156° |
| 2026-04-11 22:31 | -34.61387 | -58.08483 | 3355 ft | 94 kts | 156° |
| 2026-04-11 22:32 | -34.62006 | -58.08240 | 3380 ft | 94 kts | 155° |
| 2026-04-11 22:32 | -34.62625 | -58.07997 | 3404 ft | 94 kts | 155° |
| 2026-04-11 22:32 | -34.63242 | -58.07755 | 3433 ft | 93 kts | 154° |
| 2026-04-11 22:32 | -34.63854 | -58.07514 | 3456 ft | 93 kts | 154° |
| 2026-04-11 22:33 | -34.64468 | -58.07273 | 3480 ft | 93 kts | 154° |
| 2026-04-11 22:33 | -34.65078 | -58.07033 | 3505 ft | 92 kts | 154° |
| 2026-04-11 22:33 | -34.65687 | -58.06794 | 3530 ft | 92 kts | 154° |
| 2026-04-11 22:33 | -34.66297 | -58.06554 | 3555 ft | 92 kts | 154° |
| 2026-04-11 22:34 | -34.66906 | -58.06315 | 3580 ft | 92 kts | 154° |
| 2026-04-11 22:34 | -34.67514 | -58.06076 | 3606 ft | 92 kts | 154° |
| 2026-04-11 22:34 | -34.68121 | -58.05837 | 3632 ft | 92 kts | 154° |
| 2026-04-11 22:34 | -34.68729 | -58.05598 | 3658 ft | 92 kts | 154° |
| 2026-04-11 22:35 | -34.69336 | -58.05359 | 3684 ft | 92 kts | 154° |
| 2026-04-11 22:35 | -34.69941 | -58.05122 | 3709 ft | 92 kts | 154° |
| 2026-04-11 22:35 | -34.70547 | -58.04883 | 3734 ft | 92 kts | 154° |
| 2026-04-11 22:35 | -34.71152 | -58.04646 | 3759 ft | 92 kts | 154° |
| 2026-04-11 22:36 | -34.71758 | -58.04409 | 3784 ft | 92 kts | 154° |
| 2026-04-11 22:36 | -34.72362 | -58.04171 | 3808 ft | 92 kts | 154° |
| 2026-04-11 22:36 | -34.72967 | -58.03934 | 3834 ft | 91 kts | 154° |
| 2026-04-11 22:36 | -34.73571 | -58.03696 | 3860 ft | 91 kts | 154° |
| 2026-04-11 22:37 | -34.74178 | -58.03457 | 3891 ft | 93 kts | 154° |
| 2026-04-11 22:37 | -34.74793 | -58.03214 | 3933 ft | 94 kts | 154° |
| 2026-04-11 22:37 | -34.75417 | -58.02969 | 3969 ft | 95 kts | 154° |
| 2026-04-11 22:37 | -34.76046 | -58.02721 | 4001 ft | 96 kts | 154° |
| 2026-04-11 22:38 | -34.76677 | -58.02473 | 4032 ft | 96 kts | 154° |
| 2026-04-11 22:38 | -34.77312 | -58.02223 | 4061 ft | 96 kts | 154° |
| 2026-04-11 22:38 | -34.77949 | -58.01972 | 4088 ft | 97 kts | 154° |
| 2026-04-11 22:38 | -34.78587 | -58.01721 | 4115 ft | 97 kts | 154° |
| 2026-04-11 22:39 | -34.79225 | -58.01470 | 4141 ft | 97 kts | 154° |
| 2026-04-11 22:39 | -34.79863 | -58.01218 | 4167 ft | 97 kts | 154° |
| 2026-04-11 22:39 | -34.80501 | -58.00966 | 4193 ft | 97 kts | 154° |
| 2026-04-11 22:39 | -34.81137 | -58.00716 | 4221 ft | 96 kts | 154° |
| 2026-04-11 22:40 | -34.81772 | -58.00466 | 4245 ft | 96 kts | 154° |
| 2026-04-11 22:40 | -34.82406 | -58.00215 | 4271 ft | 96 kts | 154° |
| 2026-04-11 22:40 | -34.83042 | -57.99964 | 4296 ft | 96 kts | 154° |
| 2026-04-11 22:40 | -34.83675 | -57.99715 | 4321 ft | 96 kts | 154° |
| 2026-04-11 22:41 | -34.84309 | -57.99464 | 4346 ft | 96 kts | 154° |
| 2026-04-11 22:41 | -34.84942 | -57.99215 | 4370 ft | 96 kts | 154° |
| 2026-04-11 22:41 | -34.85573 | -57.98965 | 4395 ft | 96 kts | 153° |
| 2026-04-11 22:41 | -34.86203 | -57.98716 | 4420 ft | 95 kts | 153° |
| 2026-04-11 22:42 | -34.86834 | -57.98467 | 4445 ft | 95 kts | 153° |
| 2026-04-11 22:42 | -34.87463 | -57.98219 | 4469 ft | 95 kts | 153° |
| 2026-04-11 22:42 | -34.88091 | -57.97971 | 4494 ft | 95 kts | 153° |
| 2026-04-11 22:43 | -34.89346 | -57.97475 | 4543 ft | 95 kts | 153° |
| 2026-04-11 22:43 | -34.89973 | -57.97227 | 4568 ft | 95 kts | 153° |
| 2026-04-11 22:43 | -34.90598 | -57.96981 | 4593 ft | 95 kts | 153° |
| 2026-04-11 22:43 | -34.91226 | -57.96733 | 4618 ft | 95 kts | 153° |
| 2026-04-11 22:44 | -34.91851 | -57.96486 | 4643 ft | 95 kts | 153° |
| 2026-04-11 22:44 | -34.92496 | -57.96306 | 4666 ft | 99 kts | 172° |
| 2026-04-11 22:44 | -34.93170 | -57.96335 | 4724 ft | 97 kts | 175° |
| 2026-04-11 22:44 | -34.93844 | -57.96375 | 4753 ft | 98 kts | 175° |
| 2026-04-11 22:45 | -34.94522 | -57.96423 | 4784 ft | 98 kts | 175° |
| 2026-04-11 22:45 | -34.95204 | -57.96474 | 4812 ft | 99 kts | 176° |
| 2026-04-11 22:45 | -34.95887 | -57.96526 | 4839 ft | 99 kts | 176° |
| 2026-04-11 22:45 | -34.96572 | -57.96579 | 4866 ft | 99 kts | 176° |
| 2026-04-11 22:46 | -34.97256 | -57.96632 | 4891 ft | 99 kts | 176° |
| 2026-04-11 22:46 | -34.97942 | -57.96686 | 4917 ft | 99 kts | 176° |
| 2026-04-11 22:46 | -34.98627 | -57.96739 | 4944 ft | 99 kts | 175° |
| 2026-04-11 22:46 | -34.99311 | -57.96791 | 4969 ft | 99 kts | 175° |
| 2026-04-11 22:47 | -34.99997 | -57.96844 | 4994 ft | 99 kts | 175° |
| 2026-04-11 22:47 | -35.00681 | -57.96897 | 5019 ft | 99 kts | 175° |
| 2026-04-11 22:47 | -35.01365 | -57.96951 | 5044 ft | 99 kts | 175° |
| 2026-04-11 22:47 | -35.02050 | -57.97004 | 5069 ft | 99 kts | 175° |
| 2026-04-11 22:48 | -35.02732 | -57.97057 | 5093 ft | 99 kts | 175° |
| 2026-04-11 22:48 | -35.03416 | -57.97110 | 5118 ft | 99 kts | 175° |
| 2026-04-11 22:48 | -35.04097 | -57.97163 | 5142 ft | 98 kts | 175° |
| 2026-04-11 22:48 | -35.04779 | -57.97216 | 5166 ft | 98 kts | 175° |
| 2026-04-11 22:49 | -35.05458 | -57.97269 | 5190 ft | 98 kts | 175° |
| 2026-04-11 22:49 | -35.06138 | -57.97321 | 5215 ft | 98 kts | 175° |
| 2026-04-11 22:49 | -35.06816 | -57.97373 | 5240 ft | 98 kts | 175° |
| 2026-04-11 22:49 | -35.07494 | -57.97426 | 5265 ft | 98 kts | 175° |
| 2026-04-11 22:50 | -35.08170 | -57.97478 | 5291 ft | 98 kts | 175° |
| 2026-04-11 22:50 | -35.08846 | -57.97531 | 5316 ft | 98 kts | 175° |
| 2026-04-11 22:50 | -35.09523 | -57.97584 | 5342 ft | 97 kts | 175° |
| 2026-04-11 22:50 | -35.10196 | -57.97636 | 5367 ft | 97 kts | 175° |
| 2026-04-11 22:51 | -35.10871 | -57.97688 | 5393 ft | 97 kts | 175° |
| 2026-04-11 22:51 | -35.11546 | -57.97741 | 5420 ft | 97 kts | 175° |
| 2026-04-11 22:51 | -35.12218 | -57.97793 | 5446 ft | 97 kts | 175° |
| 2026-04-11 22:51 | -35.12891 | -57.97846 | 5479 ft | 96 kts | 175° |
| 2026-04-11 22:52 | -35.13559 | -57.97897 | 5502 ft | 97 kts | 175° |
| 2026-04-11 22:52 | -35.14235 | -57.97949 | 5511 ft | 98 kts | 175° |
| 2026-04-11 22:52 | -35.14923 | -57.98003 | 5510 ft | 100 kts | 175° |
| 2026-04-11 22:52 | -35.15619 | -57.98057 | 5505 ft | 101 kts | 176° |
| 2026-04-11 22:53 | -35.16322 | -57.98113 | 5501 ft | 102 kts | 175° |
| 2026-04-11 22:53 | -35.17024 | -57.98168 | 5499 ft | 102 kts | 175° |
| 2026-04-11 22:53 | -35.17728 | -57.98223 | 5498 ft | 102 kts | 175° |
| 2026-04-11 22:53 | -35.18430 | -57.98278 | 5498 ft | 101 kts | 175° |
| 2026-04-11 22:54 | -35.19133 | -57.98333 | 5498 ft | 101 kts | 175° |
| 2026-04-11 22:54 | -35.19837 | -57.98388 | 5498 ft | 101 kts | 175° |
| 2026-04-11 22:54 | -35.20540 | -57.98442 | 5499 ft | 101 kts | 175° |
| 2026-04-11 22:54 | -35.21243 | -57.98497 | 5498 ft | 102 kts | 175° |
| 2026-04-11 22:55 | -35.22650 | -57.98606 | 5499 ft | 102 kts | 175° |
| 2026-04-11 22:55 | -35.23355 | -57.98661 | 5501 ft | 102 kts | 176° |
| 2026-04-11 22:55 | -35.24063 | -57.98716 | 5500 ft | 102 kts | 176° |
| 2026-04-11 22:56 | -35.24772 | -57.98772 | 5498 ft | 102 kts | 176° |
| 2026-04-11 22:56 | -35.25483 | -57.98827 | 5497 ft | 102 kts | 176° |
| 2026-04-11 22:56 | -35.26193 | -57.98883 | 5497 ft | 102 kts | 176° |
| 2026-04-11 22:56 | -35.26901 | -57.98938 | 5497 ft | 102 kts | 176° |
| 2026-04-11 22:57 | -35.27612 | -57.98994 | 5498 ft | 102 kts | 176° |
| 2026-04-11 22:57 | -35.28321 | -57.99049 | 5498 ft | 102 kts | 176° |
| 2026-04-11 22:57 | -35.29031 | -57.99104 | 5498 ft | 102 kts | 176° |
| 2026-04-11 22:57 | -35.29738 | -57.99159 | 5498 ft | 102 kts | 176° |
| 2026-04-11 22:58 | -35.30448 | -57.99215 | 5497 ft | 102 kts | 176° |
| 2026-04-11 22:58 | -35.31157 | -57.99270 | 5497 ft | 102 kts | 176° |
| 2026-04-11 22:58 | -35.31868 | -57.99326 | 5497 ft | 102 kts | 176° |
| 2026-04-11 22:58 | -35.32578 | -57.99381 | 5497 ft | 102 kts | 176° |
| 2026-04-11 22:59 | -35.33288 | -57.99437 | 5497 ft | 103 kts | 176° |
| 2026-04-11 22:59 | -35.33999 | -57.99492 | 5493 ft | 103 kts | 177° |
| 2026-04-11 22:59 | -35.34714 | -57.99548 | 5490 ft | 103 kts | 177° |
| 2026-04-11 22:59 | -35.35429 | -57.99604 | 5488 ft | 103 kts | 177° |
| 2026-04-11 23:00 | -35.36146 | -57.99659 | 5486 ft | 103 kts | 177° |
| 2026-04-11 23:00 | -35.36861 | -57.99715 | 5485 ft | 103 kts | 178° |
| 2026-04-11 23:00 | -35.37576 | -57.99771 | 5485 ft | 103 kts | 178° |
| 2026-04-11 23:00 | -35.38290 | -57.99827 | 5484 ft | 103 kts | 178° |
| 2026-04-11 23:01 | -35.39006 | -57.99884 | 5484 ft | 103 kts | 178° |
| 2026-04-11 23:01 | -35.39719 | -57.99940 | 5483 ft | 103 kts | 178° |
| 2026-04-11 23:01 | -35.40435 | -57.99996 | 5483 ft | 103 kts | 178° |
| 2026-04-11 23:01 | -35.41148 | -58.00052 | 5483 ft | 103 kts | 178° |
| 2026-04-11 23:02 | -35.41863 | -58.00108 | 5483 ft | 103 kts | 178° |
| 2026-04-11 23:02 | -35.42577 | -58.00164 | 5483 ft | 103 kts | 178° |
| 2026-04-11 23:02 | -35.43292 | -58.00219 | 5483 ft | 103 kts | 178° |
| 2026-04-11 23:02 | -35.44006 | -58.00275 | 5483 ft | 103 kts | 178° |
| 2026-04-11 23:03 | -35.44720 | -58.00331 | 5484 ft | 103 kts | 178° |
| 2026-04-11 23:03 | -35.45434 | -58.00387 | 5484 ft | 103 kts | 178° |
| 2026-04-11 23:03 | -35.46147 | -58.00443 | 5484 ft | 103 kts | 178° |
| 2026-04-11 23:03 | -35.46862 | -58.00500 | 5484 ft | 103 kts | 178° |
| 2026-04-11 23:04 | -35.47577 | -58.00556 | 5485 ft | 103 kts | 178° |
| 2026-04-11 23:04 | -35.48290 | -58.00612 | 5485 ft | 103 kts | 178° |
| 2026-04-11 23:04 | -35.49004 | -58.00668 | 5485 ft | 103 kts | 178° |
| 2026-04-11 23:04 | -35.49718 | -58.00724 | 5485 ft | 103 kts | 177° |
| 2026-04-11 23:05 | -35.50433 | -58.00780 | 5486 ft | 103 kts | 177° |
| 2026-04-11 23:05 | -35.51148 | -58.00835 | 5482 ft | 103 kts | 180° |
| 2026-04-11 23:05 | -35.51866 | -58.00892 | 5473 ft | 104 kts | 180° |
| 2026-04-11 23:05 | -35.52584 | -58.00950 | 5468 ft | 104 kts | 180° |
| 2026-04-11 23:06 | -35.53303 | -58.01007 | 5467 ft | 103 kts | 180° |
| 2026-04-11 23:06 | -35.54017 | -58.01064 | 5467 ft | 103 kts | 180° |
| 2026-04-11 23:06 | -35.54730 | -58.01121 | 5469 ft | 103 kts | 180° |
| 2026-04-11 23:06 | -35.55441 | -58.01177 | 5470 ft | 103 kts | 180° |
| 2026-04-11 23:07 | -35.56153 | -58.01235 | 5471 ft | 103 kts | 180° |
| 2026-04-11 23:07 | -35.56866 | -58.01293 | 5471 ft | 103 kts | 180° |
| 2026-04-11 23:07 | -35.57567 | -58.01250 | 5470 ft | 100 kts | 156° |
| 2026-04-11 23:07 | -35.58214 | -58.00982 | 5490 ft | 98 kts | 155° |
| 2026-04-11 23:08 | -35.58865 | -58.00710 | 5480 ft | 100 kts | 155° |
| 2026-04-11 23:08 | -35.59519 | -58.00429 | 5475 ft | 100 kts | 155° |
| 2026-04-11 23:08 | -35.60174 | -58.00146 | 5471 ft | 100 kts | 155° |
| 2026-04-11 23:08 | -35.60829 | -57.99861 | 5470 ft | 100 kts | 155° |
| 2026-04-11 23:09 | -35.61481 | -57.99576 | 5470 ft | 100 kts | 155° |
| 2026-04-11 23:09 | -35.62133 | -57.99291 | 5470 ft | 100 kts | 154° |
| 2026-04-11 23:09 | -35.62784 | -57.99007 | 5471 ft | 99 kts | 154° |
| 2026-04-11 23:09 | -35.63435 | -57.98722 | 5472 ft | 99 kts | 154° |
| 2026-04-11 23:10 | -35.64084 | -57.98438 | 5472 ft | 99 kts | 154° |
| 2026-04-11 23:10 | -35.64735 | -57.98152 | 5472 ft | 100 kts | 154° |
| 2026-04-11 23:10 | -35.65385 | -57.97868 | 5471 ft | 100 kts | 154° |
| 2026-04-11 23:10 | -35.66037 | -57.97583 | 5472 ft | 100 kts | 154° |
| 2026-04-11 23:11 | -35.66688 | -57.97298 | 5472 ft | 99 kts | 154° |
| 2026-04-11 23:11 | -35.67338 | -57.97013 | 5472 ft | 99 kts | 154° |
| 2026-04-11 23:11 | -35.67989 | -57.96728 | 5472 ft | 99 kts | 154° |
| 2026-04-11 23:11 | -35.68638 | -57.96442 | 5470 ft | 100 kts | 156° |
| 2026-04-11 23:12 | -35.69292 | -57.96156 | 5464 ft | 100 kts | 156° |
| 2026-04-11 23:12 | -35.69949 | -57.95868 | 5460 ft | 100 kts | 156° |
| 2026-04-11 23:12 | -35.70604 | -57.95582 | 5458 ft | 100 kts | 156° |
| 2026-04-11 23:12 | -35.71258 | -57.95295 | 5457 ft | 100 kts | 156° |
| 2026-04-11 23:13 | -35.71911 | -57.95008 | 5457 ft | 100 kts | 156° |
| 2026-04-11 23:13 | -35.72564 | -57.94722 | 5457 ft | 100 kts | 156° |
| 2026-04-11 23:13 | -35.73216 | -57.94436 | 5456 ft | 100 kts | 156° |
| 2026-04-11 23:13 | -35.73867 | -57.94150 | 5456 ft | 100 kts | 156° |
| 2026-04-11 23:14 | -35.74519 | -57.93864 | 5456 ft | 100 kts | 156° |
| 2026-04-11 23:14 | -35.75171 | -57.93578 | 5456 ft | 100 kts | 156° |
| 2026-04-11 23:14 | -35.75822 | -57.93292 | 5456 ft | 100 kts | 157° |
| 2026-04-11 23:14 | -35.76472 | -57.93007 | 5456 ft | 100 kts | 157° |
| 2026-04-11 23:15 | -35.77125 | -57.92721 | 5455 ft | 100 kts | 157° |
| 2026-04-11 23:15 | -35.77776 | -57.92435 | 5456 ft | 100 kts | 156° |
| 2026-04-11 23:15 | -35.78427 | -57.92149 | 5457 ft | 100 kts | 156° |
| 2026-04-11 23:15 | -35.79076 | -57.91863 | 5457 ft | 100 kts | 156° |
| 2026-04-11 23:16 | -35.79728 | -57.91576 | 5457 ft | 100 kts | 156° |
| 2026-04-11 23:16 | -35.80378 | -57.91291 | 5457 ft | 100 kts | 156° |
| 2026-04-11 23:16 | -35.81031 | -57.91004 | 5457 ft | 100 kts | 156° |
| 2026-04-11 23:16 | -35.81682 | -57.90718 | 5457 ft | 100 kts | 156° |
| 2026-04-11 23:17 | -35.82334 | -57.90431 | 5457 ft | 100 kts | 156° |
| 2026-04-11 23:17 | -35.82985 | -57.90145 | 5457 ft | 100 kts | 156° |
| 2026-04-11 23:17 | -35.83638 | -57.89858 | 5457 ft | 100 kts | 156° |
| 2026-04-11 23:17 | -35.84289 | -57.89571 | 5457 ft | 100 kts | 156° |
| 2026-04-11 23:18 | -35.84941 | -57.89284 | 5457 ft | 100 kts | 156° |
| 2026-04-11 23:18 | -35.85591 | -57.88998 | 5458 ft | 100 kts | 158° |
| 2026-04-11 23:18 | -35.86241 | -57.88711 | 5457 ft | 99 kts | 159° |
| 2026-04-11 23:18 | -35.86888 | -57.88427 | 5439 ft | 99 kts | 159° |
| 2026-04-11 23:19 | -35.87538 | -57.88141 | 5430 ft | 99 kts | 159° |
| 2026-04-11 23:19 | -35.88182 | -57.87858 | 5427 ft | 98 kts | 159° |
| 2026-04-11 23:19 | -35.88822 | -57.87576 | 5428 ft | 98 kts | 159° |
| 2026-04-11 23:19 | -35.89459 | -57.87296 | 5431 ft | 97 kts | 159° |
| 2026-04-11 23:20 | -35.90093 | -57.87016 | 5433 ft | 97 kts | 159° |
| 2026-04-11 23:20 | -35.90727 | -57.86737 | 5434 ft | 97 kts | 159° |
| 2026-04-11 23:20 | -35.91363 | -57.86457 | 5434 ft | 97 kts | 159° |
| 2026-04-11 23:20 | -35.91997 | -57.86177 | 5434 ft | 97 kts | 159° |
| 2026-04-11 23:21 | -35.92634 | -57.85896 | 5434 ft | 97 kts | 159° |
| 2026-04-11 23:21 | -35.93269 | -57.85616 | 5434 ft | 97 kts | 159° |
| 2026-04-11 23:21 | -35.93905 | -57.85335 | 5434 ft | 97 kts | 159° |
| 2026-04-11 23:21 | -35.94542 | -57.85054 | 5434 ft | 97 kts | 159° |
| 2026-04-11 23:22 | -35.95178 | -57.84774 | 5433 ft | 97 kts | 159° |
| 2026-04-11 23:22 | -35.95813 | -57.84493 | 5435 ft | 97 kts | 159° |
| 2026-04-11 23:22 | -35.96450 | -57.84212 | 5436 ft | 97 kts | 159° |
| 2026-04-11 23:22 | -35.97086 | -57.83932 | 5435 ft | 97 kts | 159° |
| 2026-04-11 23:23 | -35.97722 | -57.83651 | 5434 ft | 97 kts | 159° |
| 2026-04-11 23:23 | -35.98359 | -57.83370 | 5434 ft | 97 kts | 159° |
| 2026-04-11 23:23 | -35.98996 | -57.83088 | 5434 ft | 97 kts | 159° |
| 2026-04-11 23:23 | -35.99632 | -57.82807 | 5434 ft | 97 kts | 159° |
| 2026-04-11 23:24 | -36.00268 | -57.82526 | 5433 ft | 97 kts | 159° |
| 2026-04-11 23:24 | -36.00904 | -57.82245 | 5433 ft | 97 kts | 159° |
| 2026-04-11 23:24 | -36.01540 | -57.81964 | 5433 ft | 97 kts | 159° |
| 2026-04-11 23:24 | -36.02176 | -57.81683 | 5432 ft | 97 kts | 159° |
| 2026-04-11 23:25 | -36.02811 | -57.81402 | 5431 ft | 97 kts | 159° |
| 2026-04-11 23:25 | -36.03445 | -57.81122 | 5431 ft | 97 kts | 159° |
| 2026-04-11 23:25 | -36.04077 | -57.80842 | 5432 ft | 96 kts | 160° |
| 2026-04-11 23:25 | -36.04708 | -57.80563 | 5423 ft | 97 kts | 160° |
| 2026-04-11 23:26 | -36.05339 | -57.80285 | 5421 ft | 96 kts | 160° |
| 2026-04-11 23:26 | -36.05966 | -57.80007 | 5420 ft | 96 kts | 160° |
| 2026-04-11 23:26 | -36.06594 | -57.79729 | 5421 ft | 96 kts | 160° |
| 2026-04-11 23:26 | -36.07219 | -57.79453 | 5423 ft | 96 kts | 160° |
| 2026-04-11 23:27 | -36.07844 | -57.79176 | 5424 ft | 96 kts | 160° |
| 2026-04-11 23:27 | -36.08469 | -57.78899 | 5423 ft | 96 kts | 160° |
| 2026-04-11 23:27 | -36.09093 | -57.78622 | 5423 ft | 96 kts | 160° |
| 2026-04-11 23:27 | -36.09719 | -57.78345 | 5423 ft | 96 kts | 160° |
| 2026-04-11 23:28 | -36.10345 | -57.78068 | 5423 ft | 96 kts | 160° |
| 2026-04-11 23:28 | -36.10970 | -57.77791 | 5423 ft | 96 kts | 160° |
| 2026-04-11 23:28 | -36.11594 | -57.77514 | 5423 ft | 96 kts | 160° |
| 2026-04-11 23:28 | -36.12221 | -57.77236 | 5423 ft | 96 kts | 160° |
| 2026-04-11 23:29 | -36.12847 | -57.76959 | 5423 ft | 96 kts | 160° |
| 2026-04-11 23:29 | -36.13468 | -57.76683 | 5441 ft | 94 kts | 160° |
| 2026-04-11 23:29 | -36.14073 | -57.76415 | 5481 ft | 92 kts | 160° |
| 2026-04-11 23:29 | -36.14674 | -57.76148 | 5501 ft | 92 kts | 160° |
| 2026-04-11 23:30 | -36.15280 | -57.75879 | 5510 ft | 93 kts | 160° |
| 2026-04-11 23:30 | -36.15894 | -57.75607 | 5510 ft | 95 kts | 160° |
| 2026-04-11 23:30 | -36.16515 | -57.75331 | 5506 ft | 96 kts | 160° |
| 2026-04-11 23:30 | -36.17141 | -57.75053 | 5503 ft | 96 kts | 160° |
| 2026-04-11 23:31 | -36.17770 | -57.74775 | 5501 ft | 96 kts | 160° |
| 2026-04-11 23:31 | -36.18396 | -57.74497 | 5500 ft | 96 kts | 160° |
| 2026-04-11 23:31 | -36.19023 | -57.74218 | 5500 ft | 96 kts | 160° |
| 2026-04-11 23:31 | -36.19650 | -57.73940 | 5501 ft | 96 kts | 160° |
| 2026-04-11 23:32 | -36.20276 | -57.73662 | 5501 ft | 96 kts | 160° |
| 2026-04-11 23:32 | -36.20901 | -57.73384 | 5502 ft | 96 kts | 160° |
| 2026-04-11 23:32 | -36.21526 | -57.73107 | 5504 ft | 95 kts | 160° |
| 2026-04-11 23:32 | -36.22150 | -57.72829 | 5499 ft | 96 kts | 160° |
| 2026-04-11 23:33 | -36.22776 | -57.72551 | 5498 ft | 96 kts | 160° |
| 2026-04-11 23:33 | -36.23399 | -57.72274 | 5497 ft | 95 kts | 160° |
| 2026-04-11 23:33 | -36.24022 | -57.71998 | 5497 ft | 95 kts | 160° |
| 2026-04-11 23:33 | -36.24644 | -57.71721 | 5498 ft | 95 kts | 160° |
| 2026-04-11 23:34 | -36.25264 | -57.71445 | 5499 ft | 95 kts | 160° |
| 2026-04-11 23:34 | -36.25885 | -57.71170 | 5498 ft | 95 kts | 160° |
| 2026-04-11 23:34 | -36.26506 | -57.70893 | 5497 ft | 95 kts | 160° |
| 2026-04-11 23:34 | -36.27129 | -57.70617 | 5497 ft | 95 kts | 160° |
| 2026-04-11 23:35 | -36.27750 | -57.70341 | 5497 ft | 95 kts | 160° |
| 2026-04-11 23:35 | -36.28370 | -57.70065 | 5497 ft | 95 kts | 160° |
| 2026-04-11 23:35 | -36.28991 | -57.69789 | 5498 ft | 95 kts | 160° |
| 2026-04-11 23:35 | -36.29612 | -57.69514 | 5498 ft | 95 kts | 160° |
| 2026-04-11 23:36 | -36.30232 | -57.69239 | 5498 ft | 95 kts | 160° |
| 2026-04-11 23:36 | -36.30854 | -57.68965 | 5498 ft | 95 kts | 160° |
| 2026-04-11 23:36 | -36.31490 | -57.68788 | 5490 ft | 95 kts | 187° |
| 2026-04-11 23:36 | -36.32095 | -57.69034 | 5553 ft | 90 kts | 191° |
| 2026-04-11 23:37 | -36.32719 | -57.69210 | 5535 ft | 94 kts | 193° |
| 2026-04-11 23:37 | -36.33359 | -57.69420 | 5516 ft | 96 kts | 195° |
| 2026-04-11 23:37 | -36.34003 | -57.69641 | 5502 ft | 97 kts | 195° |
| 2026-04-11 23:37 | -36.34647 | -57.69867 | 5496 ft | 96 kts | 195° |
| 2026-04-11 23:38 | -36.35287 | -57.70093 | 5494 ft | 96 kts | 195° |
| 2026-04-11 23:38 | -36.35925 | -57.70320 | 5494 ft | 95 kts | 196° |
| 2026-04-11 23:38 | -36.36559 | -57.70544 | 5496 ft | 95 kts | 195° |
| 2026-04-11 23:38 | -36.37194 | -57.70770 | 5498 ft | 95 kts | 196° |
| 2026-04-11 23:39 | -36.37827 | -57.70995 | 5498 ft | 95 kts | 196° |
| 2026-04-11 23:39 | -36.38461 | -57.71220 | 5498 ft | 95 kts | 196° |
| 2026-04-11 23:39 | -36.39096 | -57.71447 | 5497 ft | 95 kts | 196° |
| 2026-04-11 23:39 | -36.39731 | -57.71673 | 5497 ft | 95 kts | 196° |
| 2026-04-11 23:40 | -36.40366 | -57.71899 | 5498 ft | 95 kts | 196° |
| 2026-04-11 23:40 | -36.41000 | -57.72125 | 5498 ft | 95 kts | 196° |
| 2026-04-11 23:40 | -36.41635 | -57.72351 | 5498 ft | 95 kts | 196° |
| 2026-04-11 23:40 | -36.42270 | -57.72578 | 5498 ft | 95 kts | 196° |
| 2026-04-11 23:41 | -36.42905 | -57.72804 | 5498 ft | 95 kts | 196° |
| 2026-04-11 23:41 | -36.43540 | -57.73030 | 5498 ft | 95 kts | 196° |
| 2026-04-11 23:41 | -36.44175 | -57.73256 | 5498 ft | 95 kts | 196° |
| 2026-04-11 23:41 | -36.44811 | -57.73482 | 5498 ft | 95 kts | 196° |
| 2026-04-11 23:42 | -36.45446 | -57.73709 | 5498 ft | 95 kts | 196° |
| 2026-04-11 23:42 | -36.46082 | -57.73935 | 5498 ft | 95 kts | 196° |
| 2026-04-11 23:42 | -36.46717 | -57.74162 | 5498 ft | 95 kts | 196° |
| 2026-04-11 23:43 | -36.47987 | -57.74616 | 5498 ft | 95 kts | 196° |
| 2026-04-11 23:43 | -36.48623 | -57.74842 | 5498 ft | 95 kts | 196° |
| 2026-04-11 23:43 | -36.49893 | -57.75296 | 5498 ft | 95 kts | 196° |
| 2026-04-11 23:44 | -36.50527 | -57.75523 | 5498 ft | 95 kts | 196° |
| 2026-04-11 23:44 | -36.51163 | -57.75749 | 5498 ft | 95 kts | 196° |
| 2026-04-11 23:44 | -36.51798 | -57.75975 | 5498 ft | 95 kts | 196° |
| 2026-04-11 23:44 | -36.52431 | -57.76202 | 5498 ft | 95 kts | 196° |
| 2026-04-11 23:45 | -36.53069 | -57.76429 | 5498 ft | 95 kts | 196° |
| 2026-04-11 23:45 | -36.53706 | -57.76657 | 5498 ft | 95 kts | 196° |
| 2026-04-11 23:45 | -36.54341 | -57.76884 | 5498 ft | 95 kts | 196° |
| 2026-04-11 23:45 | -36.54977 | -57.77112 | 5498 ft | 95 kts | 196° |
| 2026-04-11 23:46 | -36.55611 | -57.77339 | 5498 ft | 95 kts | 196° |
| 2026-04-11 23:46 | -36.56250 | -57.77567 | 5495 ft | 96 kts | 196° |
| 2026-04-11 23:46 | -36.56894 | -57.77797 | 5495 ft | 97 kts | 195° |
| 2026-04-11 23:46 | -36.57539 | -57.78027 | 5503 ft | 97 kts | 195° |
| 2026-04-11 23:47 | -36.58184 | -57.78258 | 5504 ft | 97 kts | 195° |
| 2026-04-11 23:47 | -36.58833 | -57.78489 | 5504 ft | 97 kts | 195° |
| 2026-04-11 23:47 | -36.59481 | -57.78721 | 5502 ft | 98 kts | 195° |
| 2026-04-11 23:47 | -36.60133 | -57.78954 | 5501 ft | 98 kts | 195° |
| 2026-04-11 23:48 | -36.60784 | -57.79188 | 5500 ft | 97 kts | 195° |
| 2026-04-11 23:48 | -36.61433 | -57.79420 | 5501 ft | 97 kts | 195° |
| 2026-04-11 23:48 | -36.62082 | -57.79653 | 5501 ft | 97 kts | 195° |
| 2026-04-11 23:48 | -36.62732 | -57.79886 | 5501 ft | 97 kts | 195° |
| 2026-04-11 23:49 | -36.63381 | -57.80118 | 5501 ft | 97 kts | 195° |
| 2026-04-11 23:49 | -36.64030 | -57.80351 | 5501 ft | 97 kts | 195° |
| 2026-04-11 23:49 | -36.64679 | -57.80584 | 5501 ft | 97 kts | 195° |
| 2026-04-11 23:49 | -36.65329 | -57.80817 | 5501 ft | 97 kts | 195° |
| 2026-04-11 23:50 | -36.65978 | -57.81049 | 5501 ft | 97 kts | 195° |
| 2026-04-11 23:50 | -36.66628 | -57.81282 | 5501 ft | 97 kts | 195° |
| 2026-04-11 23:50 | -36.67276 | -57.81514 | 5501 ft | 97 kts | 195° |
| 2026-04-11 23:50 | -36.67927 | -57.81748 | 5501 ft | 97 kts | 195° |
| 2026-04-11 23:51 | -36.68577 | -57.81981 | 5501 ft | 98 kts | 195° |
| 2026-04-11 23:51 | -36.69226 | -57.82214 | 5502 ft | 98 kts | 195° |
| 2026-04-11 23:51 | -36.69877 | -57.82448 | 5502 ft | 98 kts | 195° |
| 2026-04-11 23:51 | -36.70529 | -57.82682 | 5502 ft | 98 kts | 195° |
| 2026-04-11 23:52 | -36.71183 | -57.82917 | 5502 ft | 98 kts | 195° |
| 2026-04-11 23:52 | -36.71836 | -57.83152 | 5503 ft | 98 kts | 195° |
| 2026-04-11 23:52 | -36.72490 | -57.83386 | 5503 ft | 98 kts | 195° |
| 2026-04-11 23:52 | -36.73146 | -57.83622 | 5503 ft | 98 kts | 195° |
| 2026-04-11 23:53 | -36.73801 | -57.83857 | 5503 ft | 98 kts | 195° |
| 2026-04-11 23:53 | -36.74460 | -57.84095 | 5503 ft | 99 kts | 193° |
| 2026-04-11 23:53 | -36.75120 | -57.84331 | 5507 ft | 99 kts | 193° |
| 2026-04-11 23:53 | -36.75781 | -57.84568 | 5508 ft | 99 kts | 193° |
| 2026-04-11 23:54 | -36.76440 | -57.84806 | 5508 ft | 99 kts | 193° |
| 2026-04-11 23:54 | -36.77103 | -57.85044 | 5507 ft | 99 kts | 193° |
| 2026-04-11 23:54 | -36.77753 | -57.85280 | 5533 ft | 95 kts | 193° |
| 2026-04-11 23:54 | -36.78380 | -57.85507 | 5520 ft | 94 kts | 193° |
| 2026-04-11 23:55 | -36.79011 | -57.85735 | 5503 ft | 94 kts | 193° |
| 2026-04-11 23:55 | -36.79634 | -57.85960 | 5499 ft | 93 kts | 193° |
| 2026-04-11 23:55 | -36.80251 | -57.86182 | 5500 ft | 92 kts | 193° |
| 2026-04-11 23:55 | -36.80862 | -57.86402 | 5503 ft | 91 kts | 193° |
| 2026-04-11 23:56 | -36.81470 | -57.86622 | 5506 ft | 91 kts | 193° |
| 2026-04-11 23:56 | -36.82079 | -57.86842 | 5507 ft | 91 kts | 193° |
| 2026-04-11 23:56 | -36.82686 | -57.87061 | 5507 ft | 91 kts | 193° |
| 2026-04-11 23:56 | -36.83300 | -57.87283 | 5502 ft | 93 kts | 193° |
| 2026-04-11 23:57 | -36.83917 | -57.87506 | 5509 ft | 92 kts | 193° |
| 2026-04-11 23:57 | -36.84534 | -57.87730 | 5510 ft | 93 kts | 193° |
| 2026-04-11 23:57 | -36.85152 | -57.87955 | 5510 ft | 93 kts | 193° |
| 2026-04-11 23:57 | -36.85773 | -57.88183 | 5509 ft | 93 kts | 193° |
| 2026-04-11 23:58 | -36.86396 | -57.88385 | 5505 ft | 92 kts | 181° |
| 2026-04-11 23:58 | -36.86998 | -57.88206 | 5536 ft | 88 kts | 165° |
| 2026-04-11 23:58 | -36.87601 | -57.88073 | 5543 ft | 89 kts | 167° |
| 2026-04-11 23:58 | -36.88215 | -57.87924 | 5524 ft | 91 kts | 166° |
| 2026-04-11 23:59 | -36.88838 | -57.87766 | 5514 ft | 91 kts | 166° |
| 2026-04-11 23:59 | -36.89457 | -57.87606 | 5508 ft | 91 kts | 166° |
| 2026-04-11 23:59 | -36.90074 | -57.87446 | 5506 ft | 90 kts | 166° |
| 2026-04-11 23:59 | -36.90687 | -57.87287 | 5506 ft | 90 kts | 166° |
| 2026-04-12 00:00 | -36.91297 | -57.87128 | 5508 ft | 89 kts | 167° |
| 2026-04-12 00:00 | -36.91897 | -57.86969 | 5516 ft | 88 kts | 171° |
| 2026-04-12 00:00 | -36.92506 | -57.86810 | 5503 ft | 90 kts | 172° |
| 2026-04-12 00:00 | -36.93113 | -57.86652 | 5513 ft | 89 kts | 172° |
| 2026-04-12 00:01 | -36.93720 | -57.86494 | 5515 ft | 90 kts | 172° |
| 2026-04-12 00:01 | -36.94331 | -57.86334 | 5515 ft | 90 kts | 172° |
| 2026-04-12 00:01 | -36.94941 | -57.86175 | 5514 ft | 90 kts | 172° |
| 2026-04-12 00:01 | -36.95553 | -57.86015 | 5513 ft | 90 kts | 172° |
| 2026-04-12 00:02 | -36.96164 | -57.85855 | 5512 ft | 90 kts | 172° |
| 2026-04-12 00:02 | -36.96776 | -57.85695 | 5512 ft | 90 kts | 172° |
| 2026-04-12 00:02 | -36.97387 | -57.85535 | 5513 ft | 90 kts | 172° |
| 2026-04-12 00:02 | -36.97998 | -57.85375 | 5513 ft | 90 kts | 172° |
| 2026-04-12 00:03 | -36.98609 | -57.85215 | 5513 ft | 90 kts | 172° |
| 2026-04-12 00:03 | -36.99220 | -57.85055 | 5513 ft | 90 kts | 172° |
| 2026-04-12 00:03 | -36.99828 | -57.84896 | 5513 ft | 90 kts | 172° |
| 2026-04-12 00:03 | -37.00439 | -57.84736 | 5515 ft | 89 kts | 172° |
| 2026-04-12 00:04 | -37.01047 | -57.84577 | 5514 ft | 90 kts | 171° |
| 2026-04-12 00:04 | -37.01655 | -57.84417 | 5512 ft | 90 kts | 171° |
| 2026-04-12 00:04 | -37.02262 | -57.84258 | 5513 ft | 89 kts | 172° |
| 2026-04-12 00:04 | -37.02869 | -57.84099 | 5513 ft | 89 kts | 172° |
| 2026-04-12 00:05 | -37.03478 | -57.83939 | 5514 ft | 89 kts | 172° |
| 2026-04-12 00:05 | -37.04085 | -57.83780 | 5514 ft | 89 kts | 172° |
| 2026-04-12 00:05 | -37.04693 | -57.83621 | 5514 ft | 90 kts | 172° |
| 2026-04-12 00:05 | -37.05302 | -57.83461 | 5514 ft | 90 kts | 172° |
| 2026-04-12 00:06 | -37.05911 | -57.83301 | 5514 ft | 90 kts | 172° |
| 2026-04-12 00:06 | -37.06521 | -57.83141 | 5514 ft | 90 kts | 172° |
| 2026-04-12 00:06 | -37.07133 | -57.82981 | 5515 ft | 90 kts | 172° |
| 2026-04-12 00:06 | -37.07745 | -57.82820 | 5515 ft | 90 kts | 172° |
| 2026-04-12 00:07 | -37.08360 | -57.82658 | 5515 ft | 90 kts | 173° |
| 2026-04-12 00:07 | -37.08974 | -57.82496 | 5516 ft | 91 kts | 173° |
| 2026-04-12 00:07 | -37.09605 | -57.82330 | 5496 ft | 95 kts | 174° |
| 2026-04-12 00:07 | -37.10250 | -57.82158 | 5521 ft | 94 kts | 174° |
| 2026-04-12 00:08 | -37.10895 | -57.81988 | 5528 ft | 96 kts | 174° |
| 2026-04-12 00:08 | -37.11546 | -57.81817 | 5529 ft | 96 kts | 174° |
| 2026-04-12 00:08 | -37.12204 | -57.81644 | 5526 ft | 97 kts | 174° |
| 2026-04-12 00:08 | -37.12865 | -57.81470 | 5522 ft | 97 kts | 174° |
| 2026-04-12 00:09 | -37.13527 | -57.81296 | 5521 ft | 97 kts | 174° |
| 2026-04-12 00:09 | -37.14187 | -57.81122 | 5520 ft | 97 kts | 174° |
| 2026-04-12 00:09 | -37.14847 | -57.80949 | 5520 ft | 97 kts | 174° |
| 2026-04-12 00:09 | -37.15506 | -57.80776 | 5520 ft | 97 kts | 174° |
| 2026-04-12 00:10 | -37.16162 | -57.80603 | 5520 ft | 97 kts | 174° |
| 2026-04-12 00:10 | -37.16818 | -57.80430 | 5520 ft | 97 kts | 174° |
| 2026-04-12 00:10 | -37.17476 | -57.80257 | 5520 ft | 97 kts | 174° |
| 2026-04-12 00:10 | -37.18131 | -57.80085 | 5521 ft | 96 kts | 174° |
| 2026-04-12 00:11 | -37.18786 | -57.79912 | 5521 ft | 96 kts | 174° |
| 2026-04-12 00:11 | -37.19441 | -57.79740 | 5520 ft | 96 kts | 174° |
| 2026-04-12 00:11 | -37.20096 | -57.79567 | 5520 ft | 96 kts | 174° |
| 2026-04-12 00:11 | -37.20753 | -57.79395 | 5521 ft | 96 kts | 174° |
| 2026-04-12 00:12 | -37.21406 | -57.79223 | 5521 ft | 96 kts | 174° |
| 2026-04-12 00:12 | -37.22063 | -57.79050 | 5521 ft | 97 kts | 174° |
| 2026-04-12 00:12 | -37.22719 | -57.78877 | 5522 ft | 97 kts | 174° |
| 2026-04-12 00:12 | -37.23376 | -57.78703 | 5522 ft | 97 kts | 174° |
| 2026-04-12 00:13 | -37.24035 | -57.78529 | 5522 ft | 97 kts | 174° |
| 2026-04-12 00:13 | -37.24663 | -57.78363 | 5523 ft | 97 kts | 174° |
| 2026-04-12 00:13 | -37.25325 | -57.78189 | 5524 ft | 98 kts | 174° |
| 2026-04-12 00:13 | -37.25989 | -57.78014 | 5525 ft | 98 kts | 174° |
| 2026-04-12 00:14 | -37.26655 | -57.77838 | 5525 ft | 99 kts | 174° |
| 2026-04-12 00:14 | -37.27340 | -57.77657 | 5519 ft | 101 kts | 173° |
| 2026-04-12 00:14 | -37.28025 | -57.77474 | 5536 ft | 101 kts | 173° |
| 2026-04-12 00:14 | -37.28714 | -57.77292 | 5542 ft | 101 kts | 173° |
| 2026-04-12 00:15 | -37.29401 | -57.77110 | 5539 ft | 102 kts | 173° |
| 2026-04-12 00:15 | -37.30096 | -57.76927 | 5531 ft | 102 kts | 173° |
| 2026-04-12 00:15 | -37.30791 | -57.76744 | 5528 ft | 102 kts | 173° |
| 2026-04-12 00:15 | -37.31484 | -57.76560 | 5528 ft | 102 kts | 173° |
| 2026-04-12 00:16 | -37.32178 | -57.76377 | 5530 ft | 102 kts | 173° |
| 2026-04-12 00:16 | -37.32870 | -57.76194 | 5532 ft | 102 kts | 173° |
| 2026-04-12 00:16 | -37.33564 | -57.76011 | 5533 ft | 102 kts | 173° |
| 2026-04-12 00:16 | -37.34259 | -57.75827 | 5533 ft | 102 kts | 173° |
| 2026-04-12 00:17 | -37.34955 | -57.75644 | 5533 ft | 102 kts | 173° |
| 2026-04-12 00:17 | -37.35650 | -57.75460 | 5533 ft | 102 kts | 173° |
| 2026-04-12 00:17 | -37.36346 | -57.75276 | 5533 ft | 102 kts | 173° |
| 2026-04-12 00:17 | -37.37041 | -57.75093 | 5533 ft | 102 kts | 173° |
| 2026-04-12 00:18 | -37.37736 | -57.74910 | 5533 ft | 102 kts | 173° |
| 2026-04-12 00:18 | -37.38425 | -57.74727 | 5533 ft | 102 kts | 173° |
| 2026-04-12 00:18 | -37.39114 | -57.74546 | 5533 ft | 102 kts | 173° |
| 2026-04-12 00:18 | -37.39820 | -57.74360 | 5533 ft | 102 kts | 173° |
| 2026-04-12 00:19 | -37.40513 | -57.74177 | 5533 ft | 102 kts | 173° |
| 2026-04-12 00:19 | -37.41207 | -57.73995 | 5533 ft | 102 kts | 173° |
| 2026-04-12 00:19 | -37.41899 | -57.73813 | 5533 ft | 102 kts | 174° |
| 2026-04-12 00:19 | -37.42592 | -57.73632 | 5533 ft | 102 kts | 174° |
| 2026-04-12 00:20 | -37.43289 | -57.73451 | 5516 ft | 103 kts | 174° |
| 2026-04-12 00:20 | -37.43990 | -57.73272 | 5503 ft | 103 kts | 174° |
| 2026-04-12 00:20 | -37.44689 | -57.73241 | 5486 ft | 98 kts | 210° |
| 2026-04-12 00:20 | -37.45109 | -57.73797 | 5582 ft | 85 kts | 236° |
| 2026-04-12 00:21 | -37.45553 | -57.74331 | 5572 ft | 92 kts | 231° |
| 2026-04-12 00:21 | -37.46017 | -57.74906 | 5545 ft | 95 kts | 232° |
| 2026-04-12 00:21 | -37.46488 | -57.75501 | 5523 ft | 97 kts | 232° |
| 2026-04-12 00:21 | -37.46962 | -57.76102 | 5512 ft | 97 kts | 232° |
| 2026-04-12 00:22 | -37.47433 | -57.76703 | 5508 ft | 96 kts | 232° |
| 2026-04-12 00:22 | -37.47901 | -57.77302 | 5509 ft | 96 kts | 232° |
| 2026-04-12 00:22 | -37.48367 | -57.77899 | 5510 ft | 96 kts | 233° |
| 2026-04-12 00:22 | -37.48832 | -57.78495 | 5517 ft | 96 kts | 233° |
| 2026-04-12 00:23 | -37.49298 | -57.79093 | 5519 ft | 96 kts | 233° |
| 2026-04-12 00:23 | -37.49764 | -57.79692 | 5519 ft | 96 kts | 233° |
| 2026-04-12 00:23 | -37.50231 | -57.80291 | 5518 ft | 96 kts | 233° |
| 2026-04-12 00:23 | -37.50699 | -57.80891 | 5517 ft | 96 kts | 233° |
| 2026-04-12 00:24 | -37.51168 | -57.81493 | 5517 ft | 96 kts | 233° |
| 2026-04-12 00:24 | -37.51635 | -57.82093 | 5517 ft | 96 kts | 233° |
| 2026-04-12 00:24 | -37.52104 | -57.82695 | 5517 ft | 96 kts | 233° |
| 2026-04-12 00:24 | -37.52572 | -57.83294 | 5518 ft | 96 kts | 233° |
| 2026-04-12 00:25 | -37.53040 | -57.83895 | 5519 ft | 96 kts | 233° |
| 2026-04-12 00:25 | -37.53504 | -57.84490 | 5521 ft | 95 kts | 233° |
| 2026-04-12 00:25 | -37.53967 | -57.85087 | 5519 ft | 95 kts | 233° |
| 2026-04-12 00:25 | -37.54429 | -57.85681 | 5520 ft | 95 kts | 233° |
| 2026-04-12 00:26 | -37.54890 | -57.86273 | 5521 ft | 95 kts | 233° |
| 2026-04-12 00:26 | -37.55347 | -57.86863 | 5522 ft | 94 kts | 233° |
| 2026-04-12 00:26 | -37.55806 | -57.87452 | 5523 ft | 94 kts | 233° |
| 2026-04-12 00:26 | -37.56260 | -57.88038 | 5523 ft | 94 kts | 233° |
| 2026-04-12 00:27 | -37.56716 | -57.88625 | 5524 ft | 94 kts | 233° |
| 2026-04-12 00:27 | -37.57170 | -57.89209 | 5527 ft | 93 kts | 233° |
| 2026-04-12 00:27 | -37.57605 | -57.89771 | 5537 ft | 89 kts | 233° |
| 2026-04-12 00:27 | -37.58038 | -57.90332 | 5521 ft | 89 kts | 232° |
| 2026-04-12 00:28 | -37.58469 | -57.90888 | 5519 ft | 88 kts | 232° |
| 2026-04-12 00:28 | -37.58897 | -57.91439 | 5520 ft | 88 kts | 232° |
| 2026-04-12 00:28 | -37.59322 | -57.91985 | 5523 ft | 87 kts | 232° |
| 2026-04-12 00:28 | -37.59745 | -57.92530 | 5525 ft | 87 kts | 232° |
| 2026-04-12 00:29 | -37.60168 | -57.93076 | 5526 ft | 87 kts | 232° |
| 2026-04-12 00:29 | -37.60592 | -57.93623 | 5526 ft | 87 kts | 232° |
| 2026-04-12 00:29 | -37.61015 | -57.94168 | 5526 ft | 87 kts | 232° |
| 2026-04-12 00:29 | -37.61439 | -57.94714 | 5526 ft | 87 kts | 232° |
| 2026-04-12 00:30 | -37.61863 | -57.95261 | 5521 ft | 88 kts | 233° |
| 2026-04-12 00:30 | -37.62298 | -57.95821 | 5523 ft | 89 kts | 233° |
| 2026-04-12 00:30 | -37.62734 | -57.96381 | 5533 ft | 90 kts | 233° |
| 2026-04-12 00:30 | -37.63171 | -57.96945 | 5536 ft | 90 kts | 233° |
| 2026-04-12 00:31 | -37.63611 | -57.97512 | 5536 ft | 91 kts | 233° |
| 2026-04-12 00:31 | -37.64054 | -57.98084 | 5534 ft | 92 kts | 233° |
| 2026-04-12 00:31 | -37.64500 | -57.98658 | 5532 ft | 92 kts | 233° |
| 2026-04-12 00:31 | -37.64944 | -57.99232 | 5532 ft | 92 kts | 233° |
| 2026-04-12 00:32 | -37.65389 | -57.99806 | 5532 ft | 92 kts | 233° |
| 2026-04-12 00:32 | -37.65835 | -58.00382 | 5533 ft | 92 kts | 233° |
| 2026-04-12 00:32 | -37.66281 | -58.00956 | 5533 ft | 92 kts | 233° |
| 2026-04-12 00:32 | -37.66728 | -58.01533 | 5534 ft | 92 kts | 233° |
| 2026-04-12 00:33 | -37.67174 | -58.02109 | 5535 ft | 92 kts | 233° |
| 2026-04-12 00:33 | -37.67621 | -58.02687 | 5535 ft | 92 kts | 233° |
| 2026-04-12 00:33 | -37.67991 | -58.03164 | 5535 ft | 92 kts | 233° |
| 2026-04-12 00:33 | -37.68294 | -58.03557 | 5534 ft | 92 kts | 233° |
| 2026-04-12 00:34 | -37.68628 | -58.03989 | 5534 ft | 92 kts | 233° |
| 2026-04-12 00:34 | -37.68887 | -58.04323 | 5534 ft | 92 kts | 233° |
| 2026-04-12 00:34 | -37.69338 | -58.04907 | 5534 ft | 92 kts | 233° |
| 2026-04-12 00:34 | -37.69786 | -58.05486 | 5534 ft | 92 kts | 234° |
| 2026-04-12 00:35 | -37.70233 | -58.06064 | 5534 ft | 92 kts | 234° |
| 2026-04-12 00:35 | -37.70679 | -58.06642 | 5537 ft | 92 kts | 233° |
| 2026-04-12 00:35 | -37.71142 | -58.07244 | 5492 ft | 102 kts | 230° |
| 2026-04-12 00:35 | -37.71642 | -58.07890 | 5522 ft | 103 kts | 222° |
| 2026-04-12 00:36 | -37.72147 | -58.08532 | 5546 ft | 104 kts | 223° |
| 2026-04-12 00:36 | -37.72659 | -58.09190 | 5551 ft | 106 kts | 223° |
| 2026-04-12 00:36 | -37.73182 | -58.09863 | 5547 ft | 108 kts | 223° |
| 2026-04-12 00:36 | -37.73711 | -58.10544 | 5541 ft | 109 kts | 223° |
| 2026-04-12 00:37 | -37.74241 | -58.11229 | 5536 ft | 110 kts | 223° |
| 2026-04-12 00:37 | -37.74773 | -58.11917 | 5534 ft | 110 kts | 223° |
| 2026-04-12 00:37 | -37.75302 | -58.12603 | 5533 ft | 109 kts | 222° |
| 2026-04-12 00:37 | -37.75829 | -58.13289 | 5533 ft | 109 kts | 222° |
| 2026-04-12 00:38 | -37.76358 | -58.13974 | 5530 ft | 109 kts | 222° |
| 2026-04-12 00:38 | -37.76884 | -58.14658 | 5530 ft | 109 kts | 222° |
| 2026-04-12 00:38 | -37.77411 | -58.15342 | 5531 ft | 109 kts | 222° |
| 2026-04-12 00:38 | -37.77936 | -58.16025 | 5532 ft | 109 kts | 222° |
| 2026-04-12 00:39 | -37.78461 | -58.16707 | 5532 ft | 109 kts | 222° |
| 2026-04-12 00:39 | -37.78986 | -58.17389 | 5532 ft | 109 kts | 222° |
| 2026-04-12 00:39 | -37.79514 | -58.18075 | 5530 ft | 109 kts | 223° |
| 2026-04-12 00:39 | -37.80040 | -58.18759 | 5533 ft | 109 kts | 224° |
| 2026-04-12 00:40 | -37.80567 | -58.19443 | 5535 ft | 109 kts | 224° |
| 2026-04-12 00:40 | -37.81096 | -58.20130 | 5535 ft | 109 kts | 224° |
| 2026-04-12 00:40 | -37.81623 | -58.20818 | 5535 ft | 109 kts | 224° |
| 2026-04-12 00:40 | -37.82151 | -58.21506 | 5534 ft | 109 kts | 224° |
| 2026-04-12 00:41 | -37.82680 | -58.22197 | 5534 ft | 109 kts | 224° |
| 2026-04-12 00:41 | -37.83207 | -58.22887 | 5534 ft | 109 kts | 224° |
| 2026-04-12 00:41 | -37.83734 | -58.23578 | 5534 ft | 109 kts | 224° |
| 2026-04-12 00:41 | -37.84261 | -58.24272 | 5534 ft | 109 kts | 224° |
| 2026-04-12 00:42 | -37.84784 | -58.24967 | 5534 ft | 109 kts | 225° |
| 2026-04-12 00:42 | -37.85287 | -58.25690 | 5536 ft | 109 kts | 229° |
| 2026-04-12 00:42 | -37.85761 | -58.26439 | 5536 ft | 110 kts | 231° |
| 2026-04-12 00:43 | -37.86683 | -58.27973 | 5534 ft | 110 kts | 232° |
| 2026-04-12 00:43 | -37.87140 | -58.28746 | 5534 ft | 110 kts | 232° |
| 2026-04-12 00:43 | -37.87594 | -58.29518 | 5534 ft | 110 kts | 233° |
| 2026-04-12 00:43 | -37.88048 | -58.30291 | 5535 ft | 110 kts | 233° |
| 2026-04-12 00:44 | -37.88502 | -58.31067 | 5534 ft | 110 kts | 232° |
| 2026-04-12 00:44 | -37.88955 | -58.31841 | 5534 ft | 110 kts | 232° |
| 2026-04-12 00:44 | -37.89408 | -58.32617 | 5534 ft | 110 kts | 232° |
| 2026-04-12 00:44 | -37.89862 | -58.33394 | 5534 ft | 110 kts | 232° |
| 2026-04-12 00:45 | -37.90315 | -58.34169 | 5534 ft | 110 kts | 232° |
| 2026-04-12 00:45 | -37.90768 | -58.34945 | 5534 ft | 110 kts | 232° |
| 2026-04-12 00:45 | -37.91220 | -58.35719 | 5534 ft | 110 kts | 232° |
| 2026-04-12 00:45 | -37.91674 | -58.36498 | 5533 ft | 110 kts | 232° |
| 2026-04-12 00:46 | -37.92128 | -58.37276 | 5533 ft | 110 kts | 232° |
| 2026-04-12 00:46 | -37.92583 | -58.38052 | 5534 ft | 110 kts | 232° |
| 2026-04-12 00:46 | -37.93037 | -58.38829 | 5534 ft | 110 kts | 232° |
| 2026-04-12 00:46 | -37.93491 | -58.39606 | 5534 ft | 110 kts | 232° |
| 2026-04-12 00:47 | -37.93944 | -58.40383 | 5533 ft | 110 kts | 232° |
| 2026-04-12 00:47 | -37.94399 | -58.41164 | 5533 ft | 110 kts | 232° |
| 2026-04-12 00:47 | -37.94852 | -58.41941 | 5533 ft | 110 kts | 232° |
| 2026-04-12 00:47 | -37.95305 | -58.42720 | 5533 ft | 110 kts | 232° |
| 2026-04-12 00:48 | -37.95759 | -58.43498 | 5534 ft | 110 kts | 232° |
| 2026-04-12 00:48 | -37.96212 | -58.44276 | 5533 ft | 110 kts | 232° |
| 2026-04-12 00:48 | -37.96666 | -58.45057 | 5533 ft | 110 kts | 232° |
| 2026-04-12 00:48 | -37.97119 | -58.45836 | 5534 ft | 110 kts | 232° |
| 2026-04-12 00:49 | -37.97572 | -58.46613 | 5534 ft | 110 kts | 232° |
| 2026-04-12 00:49 | -37.98026 | -58.47391 | 5534 ft | 110 kts | 232° |
| 2026-04-12 00:49 | -37.98479 | -58.48170 | 5534 ft | 110 kts | 232° |
| 2026-04-12 00:49 | -37.98931 | -58.48947 | 5534 ft | 110 kts | 232° |
| 2026-04-12 00:50 | -37.99386 | -58.49728 | 5534 ft | 110 kts | 232° |
| 2026-04-12 00:50 | -37.99837 | -58.50506 | 5534 ft | 110 kts | 232° |
| 2026-04-12 00:50 | -38.00289 | -58.51283 | 5534 ft | 110 kts | 232° |
| 2026-04-12 00:50 | -38.00741 | -58.52061 | 5534 ft | 110 kts | 232° |
| 2026-04-12 00:51 | -38.01194 | -58.52841 | 5534 ft | 110 kts | 232° |
| 2026-04-12 00:51 | -38.01647 | -58.53621 | 5534 ft | 110 kts | 232° |
| 2026-04-12 00:51 | -38.02098 | -58.54399 | 5534 ft | 110 kts | 232° |
| 2026-04-12 00:51 | -38.02550 | -58.55178 | 5534 ft | 110 kts | 232° |
| 2026-04-12 00:52 | -38.03004 | -58.55959 | 5534 ft | 110 kts | 232° |
| 2026-04-12 00:52 | -38.03456 | -58.56736 | 5534 ft | 110 kts | 232° |
| 2026-04-12 00:52 | -38.03909 | -58.57517 | 5534 ft | 110 kts | 232° |
| 2026-04-12 00:52 | -38.04360 | -58.58295 | 5534 ft | 110 kts | 232° |
| 2026-04-12 00:53 | -38.04813 | -58.59077 | 5534 ft | 110 kts | 232° |
| 2026-04-12 00:53 | -38.05263 | -58.59855 | 5534 ft | 110 kts | 231° |
| 2026-04-12 00:53 | -38.05716 | -58.60636 | 5532 ft | 110 kts | 231° |
| 2026-04-12 00:53 | -38.06167 | -58.61416 | 5531 ft | 110 kts | 231° |
| 2026-04-12 00:54 | -38.06618 | -58.62195 | 5529 ft | 110 kts | 231° |
| 2026-04-12 00:54 | -38.07068 | -58.62973 | 5529 ft | 110 kts | 231° |
| 2026-04-12 00:54 | -38.07517 | -58.63750 | 5529 ft | 109 kts | 231° |
| 2026-04-12 00:54 | -38.07968 | -58.64528 | 5530 ft | 109 kts | 231° |
| 2026-04-12 00:55 | -38.08417 | -58.65304 | 5530 ft | 109 kts | 230° |
| 2026-04-12 00:55 | -38.08867 | -58.66081 | 5530 ft | 109 kts | 230° |
| 2026-04-12 00:55 | -38.09316 | -58.66858 | 5530 ft | 109 kts | 231° |
| 2026-04-12 00:55 | -38.09758 | -58.67625 | 5517 ft | 104 kts | 231° |
| 2026-04-12 00:56 | -38.10168 | -58.68345 | 5465 ft | 97 kts | 230° |
| 2026-04-12 00:56 | -38.10447 | -58.68836 | 5459 ft | 92 kts | 230° |
| 2026-04-12 00:56 | -38.10905 | -58.69641 | 5469 ft | 85 kts | 229° |
| 2026-04-12 00:56 | -38.11248 | -58.70238 | 5492 ft | 83 kts | 228° |
| 2026-04-12 00:57 | -38.11582 | -58.70820 | 5512 ft | 81 kts | 228° |
| 2026-04-12 00:57 | -38.11914 | -58.71398 | 5529 ft | 81 kts | 227° |
| 2026-04-12 00:57 | -38.12248 | -58.71977 | 5537 ft | 82 kts | 227° |
| 2026-04-12 00:57 | -38.12584 | -58.72560 | 5541 ft | 83 kts | 227° |
| 2026-04-12 00:58 | -38.12926 | -58.73153 | 5542 ft | 84 kts | 227° |
| 2026-04-12 00:58 | -38.13272 | -58.73754 | 5539 ft | 85 kts | 227° |
| 2026-04-12 00:58 | -38.13621 | -58.74359 | 5535 ft | 85 kts | 227° |
| 2026-04-12 00:58 | -38.13972 | -58.74969 | 5533 ft | 86 kts | 227° |
| 2026-04-12 00:59 | -38.14322 | -58.75580 | 5533 ft | 86 kts | 228° |
| 2026-04-12 00:59 | -38.14672 | -58.76193 | 5535 ft | 86 kts | 227° |
| 2026-04-12 00:59 | -38.15028 | -58.76819 | 5533 ft | 89 kts | 227° |
| 2026-04-12 00:59 | -38.15400 | -58.77476 | 5580 ft | 95 kts | 229° |
| 2026-04-12 01:00 | -38.15805 | -58.77971 | 5571 ft | 95 kts | 191° |
| 2026-04-12 01:00 | -38.16401 | -58.77897 | 5621 ft | 86 kts | 160° |
| 2026-04-12 01:00 | -38.17029 | -58.77951 | 5557 ft | 92 kts | 174° |
| 2026-04-12 01:00 | -38.17677 | -58.78017 | 5430 ft | 95 kts | 176° |
| 2026-04-12 01:01 | -38.18360 | -58.78081 | 5248 ft | 105 kts | 180° |
| 2026-04-12 01:01 | -38.19110 | -58.78156 | 5088 ft | 108 kts | 191° |
| 2026-04-12 01:01 | -38.19823 | -58.78231 | 4988 ft | 97 kts | 191° |
| 2026-04-12 01:01 | -38.20467 | -58.78298 | 4845 ft | 90 kts | 182° |
| 2026-04-12 01:02 | -38.21106 | -58.78369 | 4641 ft | 96 kts | 176° |
| 2026-04-12 01:02 | -38.21801 | -58.78444 | 4458 ft | 102 kts | 178° |
| 2026-04-12 01:02 | -38.22519 | -58.78526 | 4298 ft | 106 kts | 179° |
| 2026-04-12 01:02 | -38.23259 | -58.78613 | 4132 ft | 108 kts | 180° |
| 2026-04-12 01:03 | -38.24016 | -58.78705 | 3967 ft | 111 kts | 181° |
| 2026-04-12 01:03 | -38.24791 | -58.78802 | 3798 ft | 113 kts | 182° |
| 2026-04-12 01:03 | -38.25570 | -58.78901 | 3643 ft | 111 kts | 183° |
| 2026-04-12 01:03 | -38.26331 | -58.79003 | 3464 ft | 110 kts | 185° |
| 2026-04-12 01:04 | -38.27079 | -58.79103 | 3300 ft | 108 kts | 186° |
| 2026-04-12 01:04 | -38.27824 | -58.79205 | 3143 ft | 107 kts | 188° |
| 2026-04-12 01:04 | -38.28560 | -58.79309 | 2990 ft | 106 kts | 188° |
| 2026-04-12 01:04 | -38.29290 | -58.79412 | 2833 ft | 106 kts | 188° |
| 2026-04-12 01:05 | -38.30011 | -58.79543 | 2684 ft | 105 kts | 191° |
| 2026-04-12 01:05 | -38.30727 | -58.79686 | 2534 ft | 105 kts | 192° |
| 2026-04-12 01:05 | -38.31445 | -58.79841 | 2384 ft | 105 kts | 192° |
| 2026-04-12 01:05 | -38.32161 | -58.79994 | 2235 ft | 105 kts | 187° |
| 2026-04-12 01:06 | -38.32873 | -58.80144 | 2099 ft | 102 kts | 183° |
| 2026-04-12 01:06 | -38.33550 | -58.80289 | 1978 ft | 96 kts | 181° |
| 2026-04-12 01:06 | -38.34184 | -58.80422 | 1860 ft | 89 kts | 182° |
| 2026-04-12 01:06 | -38.34756 | -58.80537 | 1752 ft | 80 kts | 191° |
| 2026-04-12 01:07 | -38.35297 | -58.80648 | 1622 ft | 78 kts | 188° |
| 2026-04-12 01:07 | -38.35832 | -58.80760 | 1499 ft | 78 kts | 185° |
| 2026-04-12 01:07 | -38.36374 | -58.80873 | 1381 ft | 80 kts | 183° |
| 2026-04-12 01:08 | -38.37514 | -58.81105 | 1157 ft | 87 kts | 183° |
| 2026-04-12 01:08 | -38.38119 | -58.81228 | 1088 ft | 87 kts | 186° |
| 2026-04-12 01:08 | -38.38700 | -58.81351 | 1081 ft | 83 kts | 186° |
| 2026-04-12 01:08 | -38.39254 | -58.81471 | 1084 ft | 79 kts | 186° |
| 2026-04-12 01:09 | -38.39803 | -58.81591 | 1125 ft | 80 kts | 185° |
| 2026-04-12 01:09 | -38.40361 | -58.81710 | 1152 ft | 83 kts | 185° |
| 2026-04-12 01:09 | -38.40896 | -58.81816 | 1155 ft | 85 kts | 184° |
| 2026-04-12 01:09 | -38.41457 | -58.82093 | 1131 ft | 91 kts | 230° |
| 2026-04-12 01:10 | -38.41719 | -58.82770 | 1195 ft | 84 kts | 233° |
| 2026-04-12 01:10 | -38.42137 | -58.83309 | 1193 ft | 88 kts | 231° |
| 2026-04-12 01:10 | -38.42537 | -58.83917 | 1168 ft | 92 kts | 229° |
| 2026-04-12 01:10 | -38.42961 | -58.84544 | 1129 ft | 94 kts | 229° |
| 2026-04-12 01:11 | -38.43391 | -58.85176 | 1102 ft | 94 kts | 230° |
| 2026-04-12 01:11 | -38.43813 | -58.85804 | 1089 ft | 93 kts | 230° |
| 2026-04-12 01:11 | -38.44226 | -58.86422 | 1086 ft | 91 kts | 230° |
| 2026-04-12 01:11 | -38.44633 | -58.87032 | 1090 ft | 90 kts | 230° |
| 2026-04-12 01:12 | -38.45037 | -58.87637 | 1096 ft | 90 kts | 230° |
| 2026-04-12 01:12 | -38.45444 | -58.88239 | 1100 ft | 90 kts | 230° |
| 2026-04-12 01:12 | -38.45851 | -58.88841 | 1102 ft | 90 kts | 230° |
| 2026-04-12 01:12 | -38.46259 | -58.89445 | 1103 ft | 90 kts | 229° |
| 2026-04-12 01:13 | -38.46667 | -58.90054 | 1102 ft | 90 kts | 230° |
| 2026-04-12 01:13 | -38.47085 | -58.90653 | 1100 ft | 91 kts | 224° |
| 2026-04-12 01:13 | -38.47648 | -58.90793 | 1114 ft | 82 kts | 152° |
| 2026-04-12 01:13 | -38.48181 | -58.90609 | 1163 ft | 83 kts | 175° |
| 2026-04-12 01:14 | -38.48752 | -58.90553 | 1171 ft | 85 kts | 168° |
| 2026-04-12 01:14 | -38.49351 | -58.90469 | 1139 ft | 89 kts | 168° |
| 2026-04-12 01:14 | -38.49969 | -58.90380 | 1110 ft | 90 kts | 168° |
| 2026-04-12 01:14 | -38.50590 | -58.90296 | 1094 ft | 90 kts | 169° |
| 2026-04-12 01:15 | -38.51206 | -58.90214 | 1090 ft | 89 kts | 169° |
| 2026-04-12 01:15 | -38.51812 | -58.90123 | 1091 ft | 88 kts | 168° |
| 2026-04-12 01:15 | -38.52417 | -58.90036 | 1095 ft | 87 kts | 168° |
| 2026-04-12 01:15 | -38.53016 | -58.89946 | 1099 ft | 87 kts | 168° |
| 2026-04-12 01:16 | -38.53619 | -58.89860 | 1101 ft | 87 kts | 168° |
| 2026-04-12 01:16 | -38.54223 | -58.89774 | 1101 ft | 88 kts | 168° |
| 2026-04-12 01:16 | -38.54824 | -58.89663 | 1096 ft | 86 kts | 156° |
| 2026-04-12 01:16 | -38.55077 | -58.89109 | 1120 ft | 70 kts | 79° |
| 2026-04-12 01:17 | -38.55069 | -58.88558 | 1193 ft | 62 kts | 89° |
| 2026-04-12 01:17 | -38.55100 | -58.87977 | 1191 ft | 69 kts | 89° |
| 2026-04-12 01:17 | -38.55136 | -58.87338 | 1157 ft | 74 kts | 90° |
| 2026-04-12 01:17 | -38.55169 | -58.86697 | 1081 ft | 72 kts | 88° |
| 2026-04-12 01:18 | -38.55196 | -58.86076 | 1053 ft | 68 kts | 87° |
| 2026-04-12 01:18 | -38.55224 | -58.85490 | 1056 ft | 65 kts | 87° |
| 2026-04-12 01:18 | -38.55255 | -58.84931 | 1070 ft | 62 kts | 87° |
| 2026-04-12 01:18 | -38.55281 | -58.84384 | 1091 ft | 62 kts | 86° |
| 2026-04-12 01:19 | -38.55305 | -58.83833 | 1109 ft | 63 kts | 86° |
| 2026-04-12 01:19 | -38.55329 | -58.83275 | 1117 ft | 64 kts | 87° |
| 2026-04-12 01:19 | -38.55354 | -58.82705 | 1116 ft | 65 kts | 87° |
| 2026-04-12 01:19 | -38.55377 | -58.82124 | 1113 ft | 66 kts | 86° |
| 2026-04-12 01:20 | -38.55400 | -58.81550 | 1109 ft | 66 kts | 86° |
| 2026-04-12 01:20 | -38.55421 | -58.80949 | 1106 ft | 66 kts | 86° |
| 2026-04-12 01:20 | -38.55229 | -58.80493 | 1090 ft | 64 kts | 13° |
| 2026-04-12 01:20 | -38.54860 | -58.80784 | 1132 ft | 65 kts | 320° |
| 2026-04-12 01:21 | -38.54476 | -58.80975 | 1173 ft | 58 kts | 354° |
| 2026-04-12 01:21 | -38.54080 | -58.81141 | 1199 ft | 61 kts | 353° |
| 2026-04-12 01:21 | -38.53643 | -58.81236 | 1181 ft | 66 kts | 2° |
| 2026-04-12 01:21 | -38.53171 | -58.81288 | 1142 ft | 70 kts | 360° |
| 2026-04-12 01:22 | -38.52683 | -58.81339 | 1063 ft | 70 kts | 360° |
| 2026-04-12 01:22 | -38.52198 | -58.81386 | 931 ft | 70 kts | 359° |
| 2026-04-12 01:22 | -38.51761 | -58.81433 | 846 ft | 61 kts | 359° |
| 2026-04-12 01:22 | -38.51356 | -58.81475 | 744 ft | 54 kts | 359° |
| 2026-04-12 01:23 | -38.50981 | -58.81509 | 612 ft | 55 kts | 360° |
| 2026-04-12 01:23 | -38.50597 | -58.81544 | 503 ft | 56 kts | 359° |
| 2026-04-12 01:23 | -38.50204 | -58.81570 | 393 ft | 57 kts | 0° |
| 2026-04-12 01:23 | -38.49805 | -58.81598 | 286 ft | 58 kts | 0° |
| 2026-04-12 01:24 | -38.49403 | -58.81647 | 187 ft | 58 kts | 0° |
| 2026-04-12 01:24 | -38.49000 | -58.81655 | 95 ft | 59 kts | 3° |
| 2026-04-12 01:24 | -38.48632 | -58.81662 | 76 ft | 40 kts | 1° |
| 2026-04-12 01:24 | -38.48420 | -58.81670 | 76 ft | 28 kts | 1° |
| 2026-04-12 01:25 | -38.48243 | -58.81672 | 76 ft | 25 kts | 7° |
| 2026-04-12 01:25 | -38.48111 | -58.81648 | 76 ft | 11 kts | 82° |
| 2026-04-12 01:25 | -38.48108 | -58.81630 | 76 ft | 0 kts | 73° |
| 2026-04-12 01:25 | -38.48108 | -58.81627 | 76 ft | 2 kts | 77° |
| 2026-04-12 01:26 | -38.48106 | -58.81610 | 76 ft | 1 kts | 87° |
| 2026-04-12 01:26 | -38.48105 | -58.81591 | 76 ft | 5 kts | 86° |
| 2026-04-12 01:26 | -38.48103 | -58.81474 | 76 ft | 18 kts | 86° |
| 2026-04-12 01:26 | -38.48078 | -58.81356 | 76 ft | 15 kts | 9° |
| 2026-04-12 01:27 | -38.47954 | -58.81348 | 76 ft | 18 kts | 21° |
| 2026-04-12 01:27 | -38.47854 | -58.81268 | 76 ft | 13 kts | 317° |
| 2026-04-12 01:27 | -38.47850 | -58.81273 | 76 ft | 0 kts | 309° |